Gilmore, Arkansas
Current Conditions -  °F | °C
As of 8:53 PM on Wednesday 22 Oct 2014 (Local Time) from KAWM Reporting Station
Clear Clear  
Wind Chill: 52°   Ceiling: Unl
Heat Index: 52°   Visibility: 10mi
Dew Point: 46°   Wind: 5mph
Humidity: 80%   Direction: 50°NE
Pressure: 30.18"   Gusts: NA
Location:  35.41°N, 90.28°W
Report Text: KAWM 230153Z AUTO 05004KT 10SM CLR 11/08 A3018 RMK AO2 SLP217 T01110078
Loading
Personal Weather Stations






























Interactive Weather Map New forecast layout! Learn more

10-Day Weather Forecast

Advertisements
Track Severe Weather on mobile